sensor_id;sensor_type;location;lat;lon;timestamp;temperature;humidity
7341;DHT22;6870;50.944;6.932;2023-10-13T00:00:42;24.20;42.40
7341;DHT22;6870;50.944;6.932;2023-10-13T00:03:11;24.00;42.40
7341;DHT22;6870;50.944;6.932;2023-10-13T00:05:44;24.20;42.30
7341;DHT22;6870;50.944;6.932;2023-10-13T00:08:12;24.40;42.50
7341;DHT22;6870;50.944;6.932;2023-10-13T00:10:42;24.10;42.20
7341;DHT22;6870;50.944;6.932;2023-10-13T00:13:10;23.90;42.30
7341;DHT22;6870;50.944;6.932;2023-10-13T00:15:40;23.90;42.20
7341;DHT22;6870;50.944;6.932;2023-10-13T00:18:13;24.20;42.40
7341;DHT22;6870;50.944;6.932;2023-10-13T00:20:41;24.10;42.50
7341;DHT22;6870;50.944;6.932;2023-10-13T00:23:17;24.30;42.80
7341;DHT22;6870;50.944;6.932;2023-10-13T00:25:48;23.90;42.10
7341;DHT22;6870;50.944;6.932;2023-10-13T00:28:23;24.00;42.60
7341;DHT22;6870;50.944;6.932;2023-10-13T00:30:55;24.00;42.20
7341;DHT22;6870;50.944;6.932;2023-10-13T00:33:29;23.90;42.30
7341;DHT22;6870;50.944;6.932;2023-10-13T00:35:59;24.20;42.40
7341;DHT22;6870;50.944;6.932;2023-10-13T00:38:29;23.90;42.50
7341;DHT22;6870;50.944;6.932;2023-10-13T00:40:57;24.10;42.20
7341;DHT22;6870;50.944;6.932;2023-10-13T00:43:30;23.80;42.30
7341;DHT22;6870;50.944;6.932;2023-10-13T00:46:04;24.10;42.50
7341;DHT22;6870;50.944;6.932;2023-10-13T00:48:41;24.00;42.50
7341;DHT22;6870;50.944;6.932;2023-10-13T00:51:18;24.30;43.10
7341;DHT22;6870;50.944;6.932;2023-10-13T00:53:50;24.00;43.20
7341;DHT22;6870;50.944;6.932;2023-10-13T00:56:19;24.00;42.80
7341;DHT22;6870;50.944;6.932;2023-10-13T00:58:48;23.70;42.40
7341;DHT22;6870;50.944;6.932;2023-10-13T01:01:19;23.80;42.60
7341;DHT22;6870;50.944;6.932;2023-10-13T01:03:50;24.20;43.00
7341;DHT22;6870;50.944;6.932;2023-10-13T01:06:22;24.10;43.60
7341;DHT22;6870;50.944;6.932;2023-10-13T01:09:01;24.30;43.20
7341;DHT22;6870;50.944;6.932;2023-10-13T01:11:38;23.70;42.70
7341;DHT22;6870;50.944;6.932;2023-10-13T01:14:11;23.70;43.30
7341;DHT22;6870;50.944;6.932;2023-10-13T01:16:39;24.30;43.90
7341;DHT22;6870;50.944;6.932;2023-10-13T01:19:10;23.60;43.00
7341;DHT22;6870;50.944;6.932;2023-10-13T01:21:39;24.20;43.50
7341;DHT22;6870;50.944;6.932;2023-10-13T01:24:09;23.60;42.90
7341;DHT22;6870;50.944;6.932;2023-10-13T01:26:40;24.00;43.30
7341;DHT22;6870;50.944;6.932;2023-10-13T01:29:09;23.80;43.10
7341;DHT22;6870;50.944;6.932;2023-10-13T01:31:40;23.70;43.20
7341;DHT22;6870;50.944;6.932;2023-10-13T01:34:14;24.20;43.70
7341;DHT22;6870;50.944;6.932;2023-10-13T01:36:48;23.90;43.30
7341;DHT22;6870;50.944;6.932;2023-10-13T01:39:19;24.20;43.70
7341;DHT22;6870;50.944;6.932;2023-10-13T01:41:48;23.60;43.80
7341;DHT22;6870;50.944;6.932;2023-10-13T01:44:22;24.20;43.80
7341;DHT22;6870;50.944;6.932;2023-10-13T01:46:50;24.00;43.80
7341;DHT22;6870;50.944;6.932;2023-10-13T01:49:18;24.10;44.00
7341;DHT22;6870;50.944;6.932;2023-10-13T01:51:49;24.00;43.70
7341;DHT22;6870;50.944;6.932;2023-10-13T01:54:17;24.30;43.70
7341;DHT22;6870;50.944;6.932;2023-10-13T01:56:47;23.80;43.40
7341;DHT22;6870;50.944;6.932;2023-10-13T01:59:17;24.00;43.60
7341;DHT22;6870;50.944;6.932;2023-10-13T02:01:44;24.20;43.70
7341;DHT22;6870;50.944;6.932;2023-10-13T02:04:12;24.20;43.60
7341;DHT22;6870;50.944;6.932;2023-10-13T02:06:41;24.10;43.50
7341;DHT22;6870;50.944;6.932;2023-10-13T02:09:10;24.30;43.80
7341;DHT22;6870;50.944;6.932;2023-10-13T02:11:41;23.80;43.30
7341;DHT22;6870;50.944;6.932;2023-10-13T02:14:12;24.20;43.70
7341;DHT22;6870;50.944;6.932;2023-10-13T02:16:43;23.90;43.30
7341;DHT22;6870;50.944;6.932;2023-10-13T02:19:16;23.80;43.70
7341;DHT22;6870;50.944;6.932;2023-10-13T02:21:46;24.10;43.60
7341;DHT22;6870;50.944;6.932;2023-10-13T02:24:25;23.90;43.60
7341;DHT22;6870;50.944;6.932;2023-10-13T02:26:57;23.90;43.70
7341;DHT22;6870;50.944;6.932;2023-10-13T02:29:40;23.90;43.80
7341;DHT22;6870;50.944;6.932;2023-10-13T02:32:08;24.00;43.90
7341;DHT22;6870;50.944;6.932;2023-10-13T02:34:45;23.90;43.80
7341;DHT22;6870;50.944;6.932;2023-10-13T02:37:12;23.80;43.70
7341;DHT22;6870;50.944;6.932;2023-10-13T02:39:41;24.20;44.10
7341;DHT22;6870;50.944;6.932;2023-10-13T02:42:09;24.00;44.00
7341;DHT22;6870;50.944;6.932;2023-10-13T02:44:49;23.90;44.00
7341;DHT22;6870;50.944;6.932;2023-10-13T02:47:17;23.90;44.30
7341;DHT22;6870;50.944;6.932;2023-10-13T02:49:46;23.90;44.30
7341;DHT22;6870;50.944;6.932;2023-10-13T02:52:14;23.50;44.00
7341;DHT22;6870;50.944;6.932;2023-10-13T02:54:43;23.80;44.30
7341;DHT22;6870;50.944;6.932;2023-10-13T02:57:15;23.80;44.30
7341;DHT22;6870;50.944;6.932;2023-10-13T02:59:44;23.80;44.10
7341;DHT22;6870;50.944;6.932;2023-10-13T03:02:14;23.90;44.60
7341;DHT22;6870;50.944;6.932;2023-10-13T03:04:50;23.60;44.40
7341;DHT22;6870;50.944;6.932;2023-10-13T03:07:27;23.80;44.30
7341;DHT22;6870;50.944;6.932;2023-10-13T03:09:57;23.90;44.40
7341;DHT22;6870;50.944;6.932;2023-10-13T03:12:29;24.00;44.40
7341;DHT22;6870;50.944;6.932;2023-10-13T03:15:00;23.90;44.50
7341;DHT22;6870;50.944;6.932;2023-10-13T03:17:39;24.00;45.30
7341;DHT22;6870;50.944;6.932;2023-10-13T03:20:10;24.00;44.30
7341;DHT22;6870;50.944;6.932;2023-10-13T03:22:39;23.50;44.00
7341;DHT22;6870;50.944;6.932;2023-10-13T03:25:11;23.50;43.90
7341;DHT22;6870;50.944;6.932;2023-10-13T03:27:46;24.10;44.40
7341;DHT22;6870;50.944;6.932;2023-10-13T03:30:29;24.00;44.40
7341;DHT22;6870;50.944;6.932;2023-10-13T03:33:05;23.70;44.20
7341;DHT22;6870;50.944;6.932;2023-10-13T03:35:36;23.70;44.30
7341;DHT22;6870;50.944;6.932;2023-10-13T03:38:06;23.70;44.20
7341;DHT22;6870;50.944;6.932;2023-10-13T03:40:44;23.90;44.50
7341;DHT22;6870;50.944;6.932;2023-10-13T03:43:34;23.70;44.60
7341;DHT22;6870;50.944;6.932;2023-10-13T03:46:11;23.80;44.50
7341;DHT22;6870;50.944;6.932;2023-10-13T03:48:40;23.70;44.20
7341;DHT22;6870;50.944;6.932;2023-10-13T03:51:21;23.70;44.00
7341;DHT22;6870;50.944;6.932;2023-10-13T03:53:57;23.70;44.30
7341;DHT22;6870;50.944;6.932;2023-10-13T03:56:27;23.80;44.10
7341;DHT22;6870;50.944;6.932;2023-10-13T03:59:07;23.70;44.50
7341;DHT22;6870;50.944;6.932;2023-10-13T04:01:37;23.60;44.20
7341;DHT22;6870;50.944;6.932;2023-10-13T04:04:14;23.60;43.90
7341;DHT22;6870;50.944;6.932;2023-10-13T04:06:56;23.90;44.30
7341;DHT22;6870;50.944;6.932;2023-10-13T04:09:40;23.80;44.20
7341;DHT22;6870;50.944;6.932;2023-10-13T04:12:25;24.00;44.50
7341;DHT22;6870;50.944;6.932;2023-10-13T04:15:12;23.80;44.20
7341;DHT22;6870;50.944;6.932;2023-10-13T04:17:48;23.90;44.20
7341;DHT22;6870;50.944;6.932;2023-10-13T04:20:17;24.00;44.40
7341;DHT22;6870;50.944;6.932;2023-10-13T04:23:02;23.80;44.10
7341;DHT22;6870;50.944;6.932;2023-10-13T04:25:47;24.00;44.50
7341;DHT22;6870;50.944;6.932;2023-10-13T04:28:47;23.70;44.00
7341;DHT22;6870;50.944;6.932;2023-10-13T04:31:20;23.60;44.00
7341;DHT22;6870;50.944;6.932;2023-10-13T04:34:10;23.80;44.20
7341;DHT22;6870;50.944;6.932;2023-10-13T04:36:46;23.70;44.30
7341;DHT22;6870;50.944;6.932;2023-10-13T04:39:13;24.00;44.30
7341;DHT22;6870;50.944;6.932;2023-10-13T04:41:56;23.60;44.10
7341;DHT22;6870;50.944;6.932;2023-10-13T04:44:25;23.70;44.10
7341;DHT22;6870;50.944;6.932;2023-10-13T04:47:12;23.80;44.10
7341;DHT22;6870;50.944;6.932;2023-10-13T04:49:48;24.00;44.20
7341;DHT22;6870;50.944;6.932;2023-10-13T04:52:25;23.60;44.00
7341;DHT22;6870;50.944;6.932;2023-10-13T04:55:10;24.00;44.90
7341;DHT22;6870;50.944;6.932;2023-10-13T04:57:51;24.10;44.50
7341;DHT22;6870;50.944;6.932;2023-10-13T05:00:27;23.60;44.00
7341;DHT22;6870;50.944;6.932;2023-10-13T05:03:14;23.80;44.20
7341;DHT22;6870;50.944;6.932;2023-10-13T05:06:17;24.10;45.00
7341;DHT22;6870;50.944;6.932;2023-10-13T05:09:03;23.90;44.30
7341;DHT22;6870;50.944;6.932;2023-10-13T05:11:51;23.90;44.60
7341;DHT22;6870;50.944;6.932;2023-10-13T05:14:37;23.80;44.30
7341;DHT22;6870;50.944;6.932;2023-10-13T05:17:23;24.00;45.10
7341;DHT22;6870;50.944;6.932;2023-10-13T05:20:11;24.30;45.00
7341;DHT22;6870;50.944;6.932;2023-10-13T05:22:56;23.70;44.20
7341;DHT22;6870;50.944;6.932;2023-10-13T05:25:59;24.10;44.70
7341;DHT22;6870;50.944;6.932;2023-10-13T05:28:46;24.10;44.80
7341;DHT22;6870;50.944;6.932;2023-10-13T05:31:52;23.80;44.70
7341;DHT22;6870;50.944;6.932;2023-10-13T05:34:37;23.60;44.50
7341;DHT22;6870;50.944;6.932;2023-10-13T05:37:25;23.90;45.00
7341;DHT22;6870;50.944;6.932;2023-10-13T05:40:11;23.60;44.60
7341;DHT22;6870;50.944;6.932;2023-10-13T05:42:56;23.90;44.80
7341;DHT22;6870;50.944;6.932;2023-10-13T05:45:42;23.80;44.70
7341;DHT22;6870;50.944;6.932;2023-10-13T05:48:24;24.20;45.20
7341;DHT22;6870;50.944;6.932;2023-10-13T05:51:08;23.60;45.10
7341;DHT22;6870;50.944;6.932;2023-10-13T05:53:55;24.10;45.20
7341;DHT22;6870;50.944;6.932;2023-10-13T05:56:41;23.90;45.20
7341;DHT22;6870;50.944;6.932;2023-10-13T05:59:28;23.60;44.70
7341;DHT22;6870;50.944;6.932;2023-10-13T06:02:15;23.80;45.00
7341;DHT22;6870;50.944;6.932;2023-10-13T06:05:01;23.60;44.70
7341;DHT22;6870;50.944;6.932;2023-10-13T06:07:47;23.90;45.40
7341;DHT22;6870;50.944;6.932;2023-10-13T06:10:34;23.50;44.60
7341;DHT22;6870;50.944;6.932;2023-10-13T06:13:20;23.70;45.40
7341;DHT22;6870;50.944;6.932;2023-10-13T06:16:06;23.90;45.20
7341;DHT22;6870;50.944;6.932;2023-10-13T06:18:52;23.80;45.10
7341;DHT22;6870;50.944;6.932;2023-10-13T06:21:38;23.70;45.10
7341;DHT22;6870;50.944;6.932;2023-10-13T06:24:24;23.60;45.00
7341;DHT22;6870;50.944;6.932;2023-10-13T06:27:11;23.80;45.50
7341;DHT22;6870;50.944;6.932;2023-10-13T06:29:57;23.80;45.40
7341;DHT22;6870;50.944;6.932;2023-10-13T06:32:25;23.90;45.20
7341;DHT22;6870;50.944;6.932;2023-10-13T06:34:53;23.90;45.20
7341;DHT22;6870;50.944;6.932;2023-10-13T06:37:25;23.80;45.10
7341;DHT22;6870;50.944;6.932;2023-10-13T06:39:59;23.70;44.60
7341;DHT22;6870;50.944;6.932;2023-10-13T06:42:34;23.90;44.80
7341;DHT22;6870;50.944;6.932;2023-10-13T06:45:07;23.80;45.30
7341;DHT22;6870;50.944;6.932;2023-10-13T06:47:36;23.90;46.50
7341;DHT22;6870;50.944;6.932;2023-10-13T06:50:09;23.90;46.30
7341;DHT22;6870;50.944;6.932;2023-10-13T06:52:42;23.40;46.60
7341;DHT22;6870;50.944;6.932;2023-10-13T06:55:10;23.40;46.70
7341;DHT22;6870;50.944;6.932;2023-10-13T06:57:45;23.60;46.60
7341;DHT22;6870;50.944;6.932;2023-10-13T07:00:13;23.60;46.30
7341;DHT22;6870;50.944;6.932;2023-10-13T07:02:54;23.90;46.30
7341;DHT22;6870;50.944;6.932;2023-10-13T07:05:36;24.10;46.20
7341;DHT22;6870;50.944;6.932;2023-10-13T07:08:06;23.80;46.10
7341;DHT22;6870;50.944;6.932;2023-10-13T07:10:36;24.00;46.40
7341;DHT22;6870;50.944;6.932;2023-10-13T07:13:16;24.00;46.30
7341;DHT22;6870;50.944;6.932;2023-10-13T07:15:46;23.50;46.00
7341;DHT22;6870;50.944;6.932;2023-10-13T07:18:15;23.70;47.40
7341;DHT22;6870;50.944;6.932;2023-10-13T07:20:44;23.40;48.60
7341;DHT22;6870;50.944;6.932;2023-10-13T07:23:13;23.50;48.30
7341;DHT22;6870;50.944;6.932;2023-10-13T07:25:52;23.00;48.50
7341;DHT22;6870;50.944;6.932;2023-10-13T07:28:23;23.30;50.00
7341;DHT22;6870;50.944;6.932;2023-10-13T07:30:51;23.10;50.10
7341;DHT22;6870;50.944;6.932;2023-10-13T07:33:39;22.80;50.90
7341;DHT22;6870;50.944;6.932;2023-10-13T07:36:09;23.00;51.30
7341;DHT22;6870;50.944;6.932;2023-10-13T07:38:45;23.10;52.20
7341;DHT22;6870;50.944;6.932;2023-10-13T07:41:47;22.90;52.50
7341;DHT22;6870;50.944;6.932;2023-10-13T07:44:22;22.80;52.60
7341;DHT22;6870;50.944;6.932;2023-10-13T07:46:55;23.00;50.60
7341;DHT22;6870;50.944;6.932;2023-10-13T07:49:28;23.10;48.60
7341;DHT22;6870;50.944;6.932;2023-10-13T07:52:06;23.60;48.50
7341;DHT22;6870;50.944;6.932;2023-10-13T07:54:55;23.40;47.90
7341;DHT22;6870;50.944;6.932;2023-10-13T07:57:38;23.70;48.10
7341;DHT22;6870;50.944;6.932;2023-10-13T08:00:22;24.10;47.40
7341;DHT22;6870;50.944;6.932;2023-10-13T08:02:57;23.60;46.60
7341;DHT22;6870;50.944;6.932;2023-10-13T08:05:36;23.90;46.70
7341;DHT22;6870;50.944;6.932;2023-10-13T08:08:22;23.90;46.40
7341;DHT22;6870;50.944;6.932;2023-10-13T08:10:53;23.80;46.30
7341;DHT22;6870;50.944;6.932;2023-10-13T08:13:23;23.90;46.10
7341;DHT22;6870;50.944;6.932;2023-10-13T08:15:54;24.10;46.00
7341;DHT22;6870;50.944;6.932;2023-10-13T08:18:27;23.90;45.80
7341;DHT22;6870;50.944;6.932;2023-10-13T08:20:58;24.00;45.70
7341;DHT22;6870;50.944;6.932;2023-10-13T08:23:30;24.20;46.00
7341;DHT22;6870;50.944;6.932;2023-10-13T08:26:16;23.80;45.50
7341;DHT22;6870;50.944;6.932;2023-10-13T08:29:05;23.80;45.20
7341;DHT22;6870;50.944;6.932;2023-10-13T08:31:50;24.20;45.30
7341;DHT22;6870;50.944;6.932;2023-10-13T08:34:40;23.60;44.60
7341;DHT22;6870;50.944;6.932;2023-10-13T08:37:27;23.70;44.70
7341;DHT22;6870;50.944;6.932;2023-10-13T08:40:03;24.20;45.00
7341;DHT22;6870;50.944;6.932;2023-10-13T08:43:05;23.80;45.00
7341;DHT22;6870;50.944;6.932;2023-10-13T08:45:39;24.10;44.70
7341;DHT22;6870;50.944;6.932;2023-10-13T08:48:22;23.90;44.60
7341;DHT22;6870;50.944;6.932;2023-10-13T08:50:58;23.70;44.50
7341;DHT22;6870;50.944;6.932;2023-10-13T08:53:37;23.60;44.70
7341;DHT22;6870;50.944;6.932;2023-10-13T08:56:18;23.80;45.40
7341;DHT22;6870;50.944;6.932;2023-10-13T08:59:00;23.60;44.90
7341;DHT22;6870;50.944;6.932;2023-10-13T09:01:36;23.80;45.10
7341;DHT22;6870;50.944;6.932;2023-10-13T09:04:15;23.60;45.00
7341;DHT22;6870;50.944;6.932;2023-10-13T09:06:50;23.50;45.00
7341;DHT22;6870;50.944;6.932;2023-10-13T09:09:44;23.40;44.80
7341;DHT22;6870;50.944;6.932;2023-10-13T09:12:38;23.30;44.90
7341;DHT22;6870;50.944;6.932;2023-10-13T09:15:30;23.90;44.90
7341;DHT22;6870;50.944;6.932;2023-10-13T09:18:23;23.70;43.80
7341;DHT22;6870;50.944;6.932;2023-10-13T09:21:11;23.90;43.70
7341;DHT22;6870;50.944;6.932;2023-10-13T09:24:12;23.70;42.80
7341;DHT22;6870;50.944;6.932;2023-10-13T09:26:58;23.90;42.10
7341;DHT22;6870;50.944;6.932;2023-10-13T09:29:28;23.80;41.60
7341;DHT22;6870;50.944;6.932;2023-10-13T09:32:00;23.90;41.40
7341;DHT22;6870;50.944;6.932;2023-10-13T09:34:31;23.90;40.60
7341;DHT22;6870;50.944;6.932;2023-10-13T09:37:03;24.10;40.60
7341;DHT22;6870;50.944;6.932;2023-10-13T09:39:32;24.10;39.70
7341;DHT22;6870;50.944;6.932;2023-10-13T09:42:11;24.40;40.00
7341;DHT22;6870;50.944;6.932;2023-10-13T09:44:44;24.20;38.90
7341;DHT22;6870;50.944;6.932;2023-10-13T09:47:22;24.20;39.80
7341;DHT22;6870;50.944;6.932;2023-10-13T09:50:00;24.40;39.50
7341;DHT22;6870;50.944;6.932;2023-10-13T09:52:35;24.70;40.10
7341;DHT22;6870;50.944;6.932;2023-10-13T09:55:13;24.80;39.20
7341;DHT22;6870;50.944;6.932;2023-10-13T09:57:51;24.80;39.00
7341;DHT22;6870;50.944;6.932;2023-10-13T10:00:27;24.90;38.80
7341;DHT22;6870;50.944;6.932;2023-10-13T10:03:10;25.10;38.20
7341;DHT22;6870;50.944;6.932;2023-10-13T10:05:58;25.00;37.90
7341;DHT22;6870;50.944;6.932;2023-10-13T10:08:34;24.80;38.50
7341;DHT22;6870;50.944;6.932;2023-10-13T10:11:14;25.00;37.90
7341;DHT22;6870;50.944;6.932;2023-10-13T10:13:53;24.90;38.40
7341;DHT22;6870;50.944;6.932;2023-10-13T10:16:37;24.90;37.70
7341;DHT22;6870;50.944;6.932;2023-10-13T10:19:13;25.20;38.60
7341;DHT22;6870;50.944;6.932;2023-10-13T10:21:41;25.10;38.00
7341;DHT22;6870;50.944;6.932;2023-10-13T10:24:15;25.10;38.30
7341;DHT22;6870;50.944;6.932;2023-10-13T10:26:56;25.20;38.90
7341;DHT22;6870;50.944;6.932;2023-10-13T10:29:24;25.40;38.30
7341;DHT22;6870;50.944;6.932;2023-10-13T10:31:52;25.30;38.10
7341;DHT22;6870;50.944;6.932;2023-10-13T10:34:20;25.60;38.20
7341;DHT22;6870;50.944;6.932;2023-10-13T10:36:59;25.40;38.00
7341;DHT22;6870;50.944;6.932;2023-10-13T10:39:35;25.50;38.60
7341;DHT22;6870;50.944;6.932;2023-10-13T10:42:12;25.60;37.60
7341;DHT22;6870;50.944;6.932;2023-10-13T10:44:50;25.50;38.00
7341;DHT22;6870;50.944;6.932;2023-10-13T10:47:22;25.50;37.40
7341;DHT22;6870;50.944;6.932;2023-10-13T10:50:00;25.80;38.20
7341;DHT22;6870;50.944;6.932;2023-10-13T10:52:34;25.70;37.90
7341;DHT22;6870;50.944;6.932;2023-10-13T10:55:07;25.80;38.10
7341;DHT22;6870;50.944;6.932;2023-10-13T10:57:40;25.20;38.00
7341;DHT22;6870;50.944;6.932;2023-10-13T11:00:18;25.40;37.70
7341;DHT22;6870;50.944;6.932;2023-10-13T11:02:53;25.60;38.00
7341;DHT22;6870;50.944;6.932;2023-10-13T11:05:22;25.70;38.70
7341;DHT22;6870;50.944;6.932;2023-10-13T11:07:55;25.50;37.40
7341;DHT22;6870;50.944;6.932;2023-10-13T11:10:25;25.80;37.80
7341;DHT22;6870;50.944;6.932;2023-10-13T11:12:55;25.70;38.20
7341;DHT22;6870;50.944;6.932;2023-10-13T11:15:41;25.50;37.90
7341;DHT22;6870;50.944;6.932;2023-10-13T11:18:11;25.60;37.50
7341;DHT22;6870;50.944;6.932;2023-10-13T11:20:48;25.70;38.30
7341;DHT22;6870;50.944;6.932;2023-10-13T11:23:21;25.60;37.70
7341;DHT22;6870;50.944;6.932;2023-10-13T11:25:58;25.60;37.00
7341;DHT22;6870;50.944;6.932;2023-10-13T11:28:26;25.40;35.80
7341;DHT22;6870;50.944;6.932;2023-10-13T11:30:55;25.00;35.50
7341;DHT22;6870;50.944;6.932;2023-10-13T11:33:26;25.00;36.60
7341;DHT22;6870;50.944;6.932;2023-10-13T11:35:55;25.00;36.20
7341;DHT22;6870;50.944;6.932;2023-10-13T11:38:25;24.80;36.20
7341;DHT22;6870;50.944;6.932;2023-10-13T11:40:55;25.00;36.60
7341;DHT22;6870;50.944;6.932;2023-10-13T11:43:41;24.80;36.40
7341;DHT22;6870;50.944;6.932;2023-10-13T11:46:28;24.50;36.50
7341;DHT22;6870;50.944;6.932;2023-10-13T11:49:13;24.60;36.40
7341;DHT22;6870;50.944;6.932;2023-10-13T11:51:46;25.10;36.70
7341;DHT22;6870;50.944;6.932;2023-10-13T11:54:15;25.00;36.80
7341;DHT22;6870;50.944;6.932;2023-10-13T11:56:45;24.80;36.50
7341;DHT22;6870;50.944;6.932;2023-10-13T11:59:15;25.00;36.70
7341;DHT22;6870;50.944;6.932;2023-10-13T12:01:51;25.20;37.10
7341;DHT22;6870;50.944;6.932;2023-10-13T12:04:38;24.80;36.50
7341;DHT22;6870;50.944;6.932;2023-10-13T12:07:10;25.20;37.50
7341;DHT22;6870;50.944;6.932;2023-10-13T12:09:44;24.80;36.60
7341;DHT22;6870;50.944;6.932;2023-10-13T12:12:27;25.40;37.10
7341;DHT22;6870;50.944;6.932;2023-10-13T12:14:58;25.00;36.60
7341;DHT22;6870;50.944;6.932;2023-10-13T12:17:36;24.90;36.70
7341;DHT22;6870;50.944;6.932;2023-10-13T12:20:07;25.00;37.00
7341;DHT22;6870;50.944;6.932;2023-10-13T12:22:37;25.10;37.50
7341;DHT22;6870;50.944;6.932;2023-10-13T12:25:06;25.40;37.00
7341;DHT22;6870;50.944;6.932;2023-10-13T12:27:52;25.40;37.50
7341;DHT22;6870;50.944;6.932;2023-10-13T12:30:25;25.20;37.50
7341;DHT22;6870;50.944;6.932;2023-10-13T12:33:15;25.20;37.30
7341;DHT22;6870;50.944;6.932;2023-10-13T12:35:56;25.10;37.70
7341;DHT22;6870;50.944;6.932;2023-10-13T12:38:38;25.20;38.00
7341;DHT22;6870;50.944;6.932;2023-10-13T12:41:38;25.70;38.60
7341;DHT22;6870;50.944;6.932;2023-10-13T12:44:24;25.20;38.20
7341;DHT22;6870;50.944;6.932;2023-10-13T12:47:11;25.70;38.80
7341;DHT22;6870;50.944;6.932;2023-10-13T12:49:57;25.40;38.40
7341;DHT22;6870;50.944;6.932;2023-10-13T12:52:34;25.50;38.60
7341;DHT22;6870;50.944;6.932;2023-10-13T12:55:03;25.60;38.40
7341;DHT22;6870;50.944;6.932;2023-10-13T12:57:36;25.50;38.60
7341;DHT22;6870;50.944;6.932;2023-10-13T13:00:13;25.60;38.70
7341;DHT22;6870;50.944;6.932;2023-10-13T13:02:49;25.10;38.50
7341;DHT22;6870;50.944;6.932;2023-10-13T13:05:19;25.40;38.10
7341;DHT22;6870;50.944;6.932;2023-10-13T13:07:49;25.40;38.10
7341;DHT22;6870;50.944;6.932;2023-10-13T13:10:21;25.50;38.10
7341;DHT22;6870;50.944;6.932;2023-10-13T13:13:03;25.80;39.10
7341;DHT22;6870;50.944;6.932;2023-10-13T13:15:32;25.20;38.50
7341;DHT22;6870;50.944;6.932;2023-10-13T13:18:01;25.70;38.30
7341;DHT22;6870;50.944;6.932;2023-10-13T13:20:37;25.30;38.10
7341;DHT22;6870;50.944;6.932;2023-10-13T13:23:11;25.70;38.30
7341;DHT22;6870;50.944;6.932;2023-10-13T13:25:45;25.40;39.00
7341;DHT22;6870;50.944;6.932;2023-10-13T13:28:13;25.30;38.70
7341;DHT22;6870;50.944;6.932;2023-10-13T13:30:42;25.50;38.60
7341;DHT22;6870;50.944;6.932;2023-10-13T13:33:11;25.30;38.50
7341;DHT22;6870;50.944;6.932;2023-10-13T13:35:40;25.70;38.50
7341;DHT22;6870;50.944;6.932;2023-10-13T13:38:10;25.20;38.40
7341;DHT22;6870;50.944;6.932;2023-10-13T13:40:43;25.60;38.80
7341;DHT22;6870;50.944;6.932;2023-10-13T13:43:16;25.70;38.80
7341;DHT22;6870;50.944;6.932;2023-10-13T13:45:59;25.70;39.20
7341;DHT22;6870;50.944;6.932;2023-10-13T13:48:29;25.70;39.30
7341;DHT22;6870;50.944;6.932;2023-10-13T13:51:03;25.70;39.00
7341;DHT22;6870;50.944;6.932;2023-10-13T13:53:32;25.70;39.60
7341;DHT22;6870;50.944;6.932;2023-10-13T13:56:04;25.70;37.10
7341;DHT22;6870;50.944;6.932;2023-10-13T13:58:33;25.30;35.20
7341;DHT22;6870;50.944;6.932;2023-10-13T14:01:01;25.40;34.00
7341;DHT22;6870;50.944;6.932;2023-10-13T14:03:41;25.10;30.90
7341;DHT22;6870;50.944;6.932;2023-10-13T14:06:13;24.90;30.00
7341;DHT22;6870;50.944;6.932;2023-10-13T14:08:45;25.20;30.40
7341;DHT22;6870;50.944;6.932;2023-10-13T14:11:15;25.10;30.20
7341;DHT22;6870;50.944;6.932;2023-10-13T14:13:57;25.20;30.40
7341;DHT22;6870;50.944;6.932;2023-10-13T14:16:27;25.00;31.00
7341;DHT22;6870;50.944;6.932;2023-10-13T14:18:57;25.00;31.50
7341;DHT22;6870;50.944;6.932;2023-10-13T14:21:26;25.10;32.20
7341;DHT22;6870;50.944;6.932;2023-10-13T14:23:54;25.20;32.40
7341;DHT22;6870;50.944;6.932;2023-10-13T14:26:22;25.10;31.90
7341;DHT22;6870;50.944;6.932;2023-10-13T14:28:52;25.10;32.20
7341;DHT22;6870;50.944;6.932;2023-10-13T14:31:29;25.50;32.40
7341;DHT22;6870;50.944;6.932;2023-10-13T14:33:59;25.20;32.80
7341;DHT22;6870;50.944;6.932;2023-10-13T14:36:27;25.00;32.30
7341;DHT22;6870;50.944;6.932;2023-10-13T14:38:55;25.30;32.40
7341;DHT22;6870;50.944;6.932;2023-10-13T14:41:23;25.10;32.70
7341;DHT22;6870;50.944;6.932;2023-10-13T14:43:52;25.10;32.50
7341;DHT22;6870;50.944;6.932;2023-10-13T14:46:23;24.90;32.30
7341;DHT22;6870;50.944;6.932;2023-10-13T14:48:52;25.10;32.50
7341;DHT22;6870;50.944;6.932;2023-10-13T14:51:22;25.10;32.90
7341;DHT22;6870;50.944;6.932;2023-10-13T14:53:52;25.10;32.60
7341;DHT22;6870;50.944;6.932;2023-10-13T14:56:22;24.90;32.10
7341;DHT22;6870;50.944;6.932;2023-10-13T14:58:52;24.80;32.40
7341;DHT22;6870;50.944;6.932;2023-10-13T15:01:22;25.10;32.50
7341;DHT22;6870;50.944;6.932;2023-10-13T15:03:54;24.70;32.50
7341;DHT22;6870;50.944;6.932;2023-10-13T15:06:25;25.10;32.40
7341;DHT22;6870;50.944;6.932;2023-10-13T15:08:56;25.10;32.90
7341;DHT22;6870;50.944;6.932;2023-10-13T15:11:26;25.10;32.20
7341;DHT22;6870;50.944;6.932;2023-10-13T15:14:14;25.00;32.50
7341;DHT22;6870;50.944;6.932;2023-10-13T15:16:43;25.10;32.00
7341;DHT22;6870;50.944;6.932;2023-10-13T15:19:11;24.90;31.60
7341;DHT22;6870;50.944;6.932;2023-10-13T15:21:41;25.20;32.30
7341;DHT22;6870;50.944;6.932;2023-10-13T15:24:10;25.00;31.60
7341;DHT22;6870;50.944;6.932;2023-10-13T15:26:44;25.20;32.00
7341;DHT22;6870;50.944;6.932;2023-10-13T15:29:15;25.10;31.80
7341;DHT22;6870;50.944;6.932;2023-10-13T15:31:44;24.90;31.70
7341;DHT22;6870;50.944;6.932;2023-10-13T15:34:32;25.10;32.20
7341;DHT22;6870;50.944;6.932;2023-10-13T15:37:01;25.00;32.00
7341;DHT22;6870;50.944;6.932;2023-10-13T15:39:31;25.10;31.80
7341;DHT22;6870;50.944;6.932;2023-10-13T15:41:59;25.10;31.80
7341;DHT22;6870;50.944;6.932;2023-10-13T15:44:29;24.80;31.60
7341;DHT22;6870;50.944;6.932;2023-10-13T15:46:58;25.30;32.00
7341;DHT22;6870;50.944;6.932;2023-10-13T15:49:46;25.00;31.80
7341;DHT22;6870;50.944;6.932;2023-10-13T15:52:16;24.80;31.60
7341;DHT22;6870;50.944;6.932;2023-10-13T15:54:45;24.90;31.50
7341;DHT22;6870;50.944;6.932;2023-10-13T15:57:14;25.10;31.50
7341;DHT22;6870;50.944;6.932;2023-10-13T15:59:43;25.00;31.50
7341;DHT22;6870;50.944;6.932;2023-10-13T16:02:13;25.20;31.70
7341;DHT22;6870;50.944;6.932;2023-10-13T16:04:43;25.20;32.00
7341;DHT22;6870;50.944;6.932;2023-10-13T16:07:12;25.10;31.70
7341;DHT22;6870;50.944;6.932;2023-10-13T16:09:42;25.20;31.80
7341;DHT22;6870;50.944;6.932;2023-10-13T16:12:10;24.80;31.80
7341;DHT22;6870;50.944;6.932;2023-10-13T16:14:42;24.80;31.40
7341;DHT22;6870;50.944;6.932;2023-10-13T16:17:10;24.80;31.10
7341;DHT22;6870;50.944;6.932;2023-10-13T16:19:38;25.50;31.30
7341;DHT22;6870;50.944;6.932;2023-10-13T16:22:06;25.10;31.20
7341;DHT22;6870;50.944;6.932;2023-10-13T16:24:36;25.20;31.50
7341;DHT22;6870;50.944;6.932;2023-10-13T16:27:06;25.20;31.90
7341;DHT22;6870;50.944;6.932;2023-10-13T16:29:34;25.30;31.60
7341;DHT22;6870;50.944;6.932;2023-10-13T16:32:02;25.20;32.10
7341;DHT22;6870;50.944;6.932;2023-10-13T16:34:30;25.20;32.20
7341;DHT22;6870;50.944;6.932;2023-10-13T16:36:58;25.20;32.10
7341;DHT22;6870;50.944;6.932;2023-10-13T16:39:31;25.00;32.20
7341;DHT22;6870;50.944;6.932;2023-10-13T16:41:59;25.30;32.30
7341;DHT22;6870;50.944;6.932;2023-10-13T16:44:29;24.90;32.30
7341;DHT22;6870;50.944;6.932;2023-10-13T16:46:58;25.40;32.80
7341;DHT22;6870;50.944;6.932;2023-10-13T16:49:27;25.10;32.70
7341;DHT22;6870;50.944;6.932;2023-10-13T16:51:56;25.40;33.00
7341;DHT22;6870;50.944;6.932;2023-10-13T16:54:27;25.10;33.00